sensor_id;sensor_type;location;lat;lon;timestamp;pressure;altitude;pressure_sealevel;temperature;humidity
72855;BME280;60991;51.278;22.550;2023-12-28T00:00:22;99679.06;;;3.63;69.38
72855;BME280;60991;51.278;22.550;2023-12-28T00:01:52;99675.44;;;3.64;69.17
72855;BME280;60991;51.278;22.550;2023-12-28T00:03:23;99676.25;;;3.64;69.17
72855;BME280;60991;51.278;22.550;2023-12-28T00:04:53;99667.97;;;3.46;68.94
72855;BME280;60991;51.278;22.550;2023-12-28T00:06:23;99661.19;;;3.37;69.93
72855;BME280;60991;51.278;22.550;2023-12-28T00:07:53;99665.78;;;3.35;69.64
72855;BME280;60991;51.278;22.550;2023-12-28T00:09:23;99663.09;;;3.43;69.61
72855;BME280;60991;51.278;22.550;2023-12-28T00:10:54;99656.47;;;3.47;69.57
72855;BME280;60991;51.278;22.550;2023-12-28T00:12:24;99639.78;;;3.55;69.05
72855;BME280;60991;51.278;22.550;2023-12-28T00:13:54;99634.78;;;3.60;68.91
72855;BME280;60991;51.278;22.550;2023-12-28T00:15:24;99628.72;;;3.59;68.81
72855;BME280;60991;51.278;22.550;2023-12-28T00:16:55;99613.31;;;3.50;69.75
72855;BME280;60991;51.278;22.550;2023-12-28T00:18:25;99606.91;;;3.59;69.28
72855;BME280;60991;51.278;22.550;2023-12-28T00:19:55;99616.06;;;3.63;68.72
72855;BME280;60991;51.278;22.550;2023-12-28T00:21:26;99624.84;;;3.55;69.16
72855;BME280;60991;51.278;22.550;2023-12-28T00:22:56;99632.09;;;3.53;69.09
72855;BME280;60991;51.278;22.550;2023-12-28T00:24:26;99624.16;;;3.46;69.58
72855;BME280;60991;51.278;22.550;2023-12-28T00:25:56;99604.41;;;3.29;69.81
72855;BME280;60991;51.278;22.550;2023-12-28T00:27:26;99606.50;;;3.19;70.27
72855;BME280;60991;51.278;22.550;2023-12-28T00:28:57;99611.41;;;3.07;70.18
72855;BME280;60991;51.278;22.550;2023-12-28T00:30:27;99622.34;;;3.11;70.19
72855;BME280;60991;51.278;22.550;2023-12-28T00:31:57;99630.63;;;3.29;69.92
72855;BME280;60991;51.278;22.550;2023-12-28T00:33:27;99629.34;;;3.40;68.85
72855;BME280;60991;51.278;22.550;2023-12-28T00:34:58;99631.94;;;3.40;69.16
72855;BME280;60991;51.278;22.550;2023-12-28T00:36:28;99625.34;;;3.44;68.92
72855;BME280;60991;51.278;22.550;2023-12-28T00:37:59;99620.19;;;3.36;69.04
72855;BME280;60991;51.278;22.550;2023-12-28T00:39:29;99619.59;;;3.19;69.80
72855;BME280;60991;51.278;22.550;2023-12-28T00:40:59;99633.28;;;3.15;69.94
72855;BME280;60991;51.278;22.550;2023-12-28T00:42:29;99639.16;;;3.17;70.01
72855;BME280;60991;51.278;22.550;2023-12-28T00:44:00;99644.22;;;3.18;69.58
72855;BME280;60991;51.278;22.550;2023-12-28T00:45:30;99629.22;;;3.12;69.79
72855;BME280;60991;51.278;22.550;2023-12-28T00:47:00;99644.59;;;3.00;70.36
72855;BME280;60991;51.278;22.550;2023-12-28T00:48:30;99643.34;;;2.96;70.12
72855;BME280;60991;51.278;22.550;2023-12-28T00:50:00;99633.91;;;3.02;70.56
72855;BME280;60991;51.278;22.550;2023-12-28T00:51:31;99627.88;;;2.87;70.73
72855;BME280;60991;51.278;22.550;2023-12-28T00:53:01;99611.25;;;2.94;70.68
72855;BME280;60991;51.278;22.550;2023-12-28T00:54:31;99617.03;;;2.90;70.87
72855;BME280;60991;51.278;22.550;2023-12-28T00:56:01;99609.00;;;2.91;70.90
72855;BME280;60991;51.278;22.550;2023-12-28T00:57:31;99616.69;;;2.93;70.51
72855;BME280;60991;51.278;22.550;2023-12-28T00:59:02;99622.19;;;2.83;70.99
72855;BME280;60991;51.278;22.550;2023-12-28T01:00:32;99623.75;;;2.77;71.01
72855;BME280;60991;51.278;22.550;2023-12-28T01:02:02;99631.78;;;2.76;71.10
72855;BME280;60991;51.278;22.550;2023-12-28T01:03:32;99623.81;;;2.69;71.55
72855;BME280;60991;51.278;22.550;2023-12-28T01:05:03;99629.34;;;2.74;70.84
72855;BME280;60991;51.278;22.550;2023-12-28T01:06:33;99634.22;;;2.77;71.36
72855;BME280;60991;51.278;22.550;2023-12-28T01:08:03;99625.16;;;2.80;70.88
72855;BME280;60991;51.278;22.550;2023-12-28T01:09:34;99619.75;;;2.82;71.39
72855;BME280;60991;51.278;22.550;2023-12-28T01:11:04;99612.06;;;2.80;71.10
72855;BME280;60991;51.278;22.550;2023-12-28T01:12:34;99612.50;;;2.84;71.13
72855;BME280;60991;51.278;22.550;2023-12-28T01:14:04;99619.19;;;2.86;71.66
72855;BME280;60991;51.278;22.550;2023-12-28T01:15:34;99622.38;;;2.96;70.83
72855;BME280;60991;51.278;22.550;2023-12-28T01:17:05;99616.38;;;3.02;71.01
72855;BME280;60991;51.278;22.550;2023-12-28T01:18:35;99603.81;;;2.98;70.93
72855;BME280;60991;51.278;22.550;2023-12-28T01:20:05;99580.50;;;2.88;71.09
72855;BME280;60991;51.278;22.550;2023-12-28T01:21:36;99579.16;;;2.92;70.60
72855;BME280;60991;51.278;22.550;2023-12-28T01:23:06;99580.69;;;2.87;70.76
72855;BME280;60991;51.278;22.550;2023-12-28T01:24:36;99590.53;;;2.85;71.46
72855;BME280;60991;51.278;22.550;2023-12-28T01:26:12;99583.22;;;2.80;70.91
72855;BME280;60991;51.278;22.550;2023-12-28T01:27:42;99585.41;;;2.76;71.08
72855;BME280;60991;51.278;22.550;2023-12-28T01:29:13;99581.34;;;2.74;71.00
72855;BME280;60991;51.278;22.550;2023-12-28T01:30:43;99579.09;;;2.71;71.46
72855;BME280;60991;51.278;22.550;2023-12-28T01:32:13;99587.47;;;2.66;71.41
72855;BME280;60991;51.278;22.550;2023-12-28T01:33:43;99589.28;;;2.66;71.65
72855;BME280;60991;51.278;22.550;2023-12-28T01:35:13;99594.47;;;2.59;71.62
72855;BME280;60991;51.278;22.550;2023-12-28T01:36:44;99603.03;;;2.68;71.84
72855;BME280;60991;51.278;22.550;2023-12-28T01:38:14;99592.09;;;2.64;71.44
72855;BME280;60991;51.278;22.550;2023-12-28T01:39:45;99576.38;;;2.64;71.84
72855;BME280;60991;51.278;22.550;2023-12-28T01:41:15;99575.28;;;2.73;70.97
72855;BME280;60991;51.278;22.550;2023-12-28T01:42:45;99576.09;;;2.74;70.96
72855;BME280;60991;51.278;22.550;2023-12-28T01:44:15;99581.44;;;2.66;71.11
72855;BME280;60991;51.278;22.550;2023-12-28T01:45:45;99587.31;;;2.68;71.07
72855;BME280;60991;51.278;22.550;2023-12-28T01:47:16;99589.56;;;2.71;70.75
72855;BME280;60991;51.278;22.550;2023-12-28T01:48:49;99579.28;;;2.55;71.69
72855;BME280;60991;51.278;22.550;2023-12-28T01:50:21;99570.94;;;2.66;71.59
72855;BME280;60991;51.278;22.550;2023-12-28T01:51:53;99569.06;;;2.60;71.29
72855;BME280;60991;51.278;22.550;2023-12-28T01:53:23;99568.25;;;2.59;71.83
72855;BME280;60991;51.278;22.550;2023-12-28T01:54:53;99567.06;;;2.62;71.05
72855;BME280;60991;51.278;22.550;2023-12-28T01:56:24;99562.53;;;2.70;71.42
72855;BME280;60991;51.278;22.550;2023-12-28T01:57:54;99556.31;;;2.71;71.06
72855;BME280;60991;51.278;22.550;2023-12-28T01:59:25;99545.28;;;2.76;70.87
72855;BME280;60991;51.278;22.550;2023-12-28T02:00:56;99542.53;;;2.84;70.92
72855;BME280;60991;51.278;22.550;2023-12-28T02:02:27;99544.16;;;2.85;70.89
72855;BME280;60991;51.278;22.550;2023-12-28T02:03:58;99547.88;;;2.91;70.87
72855;BME280;60991;51.278;22.550;2023-12-28T02:05:28;99555.38;;;2.94;70.57
72855;BME280;60991;51.278;22.550;2023-12-28T02:07:00;99556.47;;;2.85;70.30
72855;BME280;60991;51.278;22.550;2023-12-28T02:08:30;99546.16;;;2.83;70.20
72855;BME280;60991;51.278;22.550;2023-12-28T02:10:00;99544.72;;;2.81;70.97
72855;BME280;60991;51.278;22.550;2023-12-28T02:11:30;99553.84;;;2.85;70.83
72855;BME280;60991;51.278;22.550;2023-12-28T02:13:01;99548.53;;;2.78;70.92
72855;BME280;60991;51.278;22.550;2023-12-28T02:14:31;99547.72;;;2.77;70.31
72855;BME280;60991;51.278;22.550;2023-12-28T02:16:06;99538.13;;;2.70;70.77
72855;BME280;60991;51.278;22.550;2023-12-28T02:17:43;99541.66;;;2.77;70.99
72855;BME280;60991;51.278;22.550;2023-12-28T02:21:12;99525.81;;;2.85;70.82
72855;BME280;60991;51.278;22.550;2023-12-28T02:22:43;99534.13;;;2.89;70.30
72855;BME280;60991;51.278;22.550;2023-12-28T02:24:13;99530.06;;;2.86;70.51
72855;BME280;60991;51.278;22.550;2023-12-28T02:25:44;99524.72;;;2.94;70.42
72855;BME280;60991;51.278;22.550;2023-12-28T02:27:14;99523.97;;;3.00;70.28
72855;BME280;60991;51.278;22.550;2023-12-28T02:28:45;99524.41;;;3.04;70.36
72855;BME280;60991;51.278;22.550;2023-12-28T02:30:16;99520.44;;;3.08;69.98
72855;BME280;60991;51.278;22.550;2023-12-28T02:31:56;99514.19;;;3.09;69.94
72855;BME280;60991;51.278;22.550;2023-12-28T02:33:46;99509.38;;;3.12;69.61
72855;BME280;60991;51.278;22.550;2023-12-28T02:37:12;99509.63;;;3.39;68.91
72855;BME280;60991;51.278;22.550;2023-12-28T02:38:47;99510.69;;;3.44;68.81
72855;BME280;60991;51.278;22.550;2023-12-28T02:40:19;99511.94;;;3.48;68.50
72855;BME280;60991;51.278;22.550;2023-12-28T02:41:49;99502.91;;;3.51;68.85
72855;BME280;60991;51.278;22.550;2023-12-28T02:43:19;99498.84;;;3.48;68.68
72855;BME280;60991;51.278;22.550;2023-12-28T02:44:50;99493.41;;;3.50;68.95
72855;BME280;60991;51.278;22.550;2023-12-28T02:46:20;99495.63;;;3.53;68.62
72855;BME280;60991;51.278;22.550;2023-12-28T02:47:50;99492.81;;;3.55;68.34
72855;BME280;60991;51.278;22.550;2023-12-28T02:49:20;99496.06;;;3.57;68.30
72855;BME280;60991;51.278;22.550;2023-12-28T02:50:51;99478.50;;;3.57;68.20
72855;BME280;60991;51.278;22.550;2023-12-28T02:52:21;99475.50;;;3.60;67.96
72855;BME280;60991;51.278;22.550;2023-12-28T02:53:52;99470.88;;;3.62;68.30
72855;BME280;60991;51.278;22.550;2023-12-28T02:55:22;99463.19;;;3.61;68.46
72855;BME280;60991;51.278;22.550;2023-12-28T02:56:53;99461.56;;;3.60;68.20
72855;BME280;60991;51.278;22.550;2023-12-28T02:58:23;99452.69;;;3.61;68.53
72855;BME280;60991;51.278;22.550;2023-12-28T02:59:53;99457.94;;;3.61;68.55
72855;BME280;60991;51.278;22.550;2023-12-28T03:01:23;99458.75;;;3.61;68.15
72855;BME280;60991;51.278;22.550;2023-12-28T03:02:53;99457.13;;;3.60;68.04
72855;BME280;60991;51.278;22.550;2023-12-28T03:04:24;99450.44;;;3.58;68.17
72855;BME280;60991;51.278;22.550;2023-12-28T03:05:54;99455.91;;;3.35;68.43
72855;BME280;60991;51.278;22.550;2023-12-28T03:07:24;99451.16;;;3.45;68.25
72855;BME280;60991;51.278;22.550;2023-12-28T03:08:54;99450.41;;;3.51;68.51
72855;BME280;60991;51.278;22.550;2023-12-28T03:10:24;99432.44;;;3.55;68.34
72855;BME280;60991;51.278;22.550;2023-12-28T03:11:55;99421.56;;;3.58;68.01
72855;BME280;60991;51.278;22.550;2023-12-28T03:13:25;99416.94;;;3.60;68.06
72855;BME280;60991;51.278;22.550;2023-12-28T03:14:55;99412.31;;;3.62;67.90
72855;BME280;60991;51.278;22.550;2023-12-28T03:16:26;99403.19;;;3.51;68.26
72855;BME280;60991;51.278;22.550;2023-12-28T03:17:56;99398.13;;;3.56;67.79
72855;BME280;60991;51.278;22.550;2023-12-28T03:19:26;99401.81;;;3.62;68.18
72855;BME280;60991;51.278;22.550;2023-12-28T03:20:56;99398.00;;;3.64;67.61
72855;BME280;60991;51.278;22.550;2023-12-28T03:22:26;99399.63;;;3.65;67.94
72855;BME280;60991;51.278;22.550;2023-12-28T03:23:56;99400.25;;;3.67;67.53
72855;BME280;60991;51.278;22.550;2023-12-28T03:25:27;99397.94;;;3.51;68.05
72855;BME280;60991;51.278;22.550;2023-12-28T03:26:57;99394.88;;;3.54;68.15
72855;BME280;60991;51.278;22.550;2023-12-28T03:28:27;99388.13;;;3.38;68.13
72855;BME280;60991;51.278;22.550;2023-12-28T03:29:57;99383.81;;;3.52;67.57
72855;BME280;60991;51.278;22.550;2023-12-28T03:31:28;99391.88;;;3.57;67.54
72855;BME280;60991;51.278;22.550;2023-12-28T03:32:58;99391.19;;;3.42;68.11
72855;BME280;60991;51.278;22.550;2023-12-28T03:34:28;99395.31;;;3.51;67.69
72855;BME280;60991;51.278;22.550;2023-12-28T03:35:58;99397.69;;;3.46;67.76
72855;BME280;60991;51.278;22.550;2023-12-28T03:37:28;99396.38;;;3.35;68.06
72855;BME280;60991;51.278;22.550;2023-12-28T03:38:59;99403.03;;;3.31;68.41
72855;BME280;60991;51.278;22.550;2023-12-28T03:40:29;99398.91;;;3.22;68.26
72855;BME280;60991;51.278;22.550;2023-12-28T03:41:59;99398.25;;;3.41;67.51
72855;BME280;60991;51.278;22.550;2023-12-28T03:43:29;99399.56;;;3.52;67.29
72855;BME280;60991;51.278;22.550;2023-12-28T03:44:59;99390.66;;;3.53;67.17
72855;BME280;60991;51.278;22.550;2023-12-28T03:46:30;99392.13;;;3.62;67.02
72855;BME280;60991;51.278;22.550;2023-12-28T03:48:00;99389.47;;;3.56;67.06
72855;BME280;60991;51.278;22.550;2023-12-28T03:49:30;99389.38;;;3.42;67.64
72855;BME280;60991;51.278;22.550;2023-12-28T03:51:00;99395.19;;;3.38;67.70
72855;BME280;60991;51.278;22.550;2023-12-28T03:52:30;99384.59;;;3.25;68.00
72855;BME280;60991;51.278;22.550;2023-12-28T03:54:01;99382.84;;;3.32;68.12
72855;BME280;60991;51.278;22.550;2023-12-28T03:55:31;99389.31;;;3.36;67.72
72855;BME280;60991;51.278;22.550;2023-12-28T03:57:01;99381.72;;;3.20;68.61
72855;BME280;60991;51.278;22.550;2023-12-28T03:58:32;99388.41;;;3.22;67.92
72855;BME280;60991;51.278;22.550;2023-12-28T04:00:02;99382.50;;;3.13;68.46
72855;BME280;60991;51.278;22.550;2023-12-28T04:01:33;99386.16;;;3.19;68.14
72855;BME280;60991;51.278;22.550;2023-12-28T04:03:03;99376.25;;;3.15;67.96
72855;BME280;60991;51.278;22.550;2023-12-28T04:04:33;99376.00;;;3.09;68.79
72855;BME280;60991;51.278;22.550;2023-12-28T04:06:04;99363.38;;;3.20;68.12
72855;BME280;60991;51.278;22.550;2023-12-28T04:07:34;99365.00;;;3.21;68.48
72855;BME280;60991;51.278;22.550;2023-12-28T04:09:05;99362.72;;;3.11;68.72
72855;BME280;60991;51.278;22.550;2023-12-28T04:10:35;99354.25;;;3.16;68.52
72855;BME280;60991;51.278;22.550;2023-12-28T04:12:06;99358.66;;;3.08;68.51
72855;BME280;60991;51.278;22.550;2023-12-28T04:13:36;99351.84;;;3.14;69.01
72855;BME280;60991;51.278;22.550;2023-12-28T04:15:07;99354.97;;;3.03;69.21
72855;BME280;60991;51.278;22.550;2023-12-28T04:16:37;99348.88;;;2.96;68.93
72855;BME280;60991;51.278;22.550;2023-12-28T04:18:07;99346.19;;;2.89;69.68
72855;BME280;60991;51.278;22.550;2023-12-28T04:19:37;99342.75;;;2.89;69.92
72855;BME280;60991;51.278;22.550;2023-12-28T04:21:09;99340.03;;;3.03;69.81
72855;BME280;60991;51.278;22.550;2023-12-28T04:22:39;99337.69;;;2.87;70.26
72855;BME280;60991;51.278;22.550;2023-12-28T04:24:09;99338.38;;;2.96;70.46
72855;BME280;60991;51.278;22.550;2023-12-28T04:25:40;99330.53;;;2.96;70.03
72855;BME280;60991;51.278;22.550;2023-12-28T04:27:10;99340.03;;;3.03;69.83
72855;BME280;60991;51.278;22.550;2023-12-28T04:28:40;99335.44;;;3.05;69.39
72855;BME280;60991;51.278;22.550;2023-12-28T04:30:13;99334.44;;;3.06;69.38
72855;BME280;60991;51.278;22.550;2023-12-28T04:31:44;99335.13;;;2.94;70.13
72855;BME280;60991;51.278;22.550;2023-12-28T04:33:17;99337.59;;;3.02;70.04
72855;BME280;60991;51.278;22.550;2023-12-28T04:34:47;99340.47;;;3.07;69.82
72855;BME280;60991;51.278;22.550;2023-12-28T04:36:17;99333.19;;;3.02;69.83
72855;BME280;60991;51.278;22.550;2023-12-28T04:37:47;99323.88;;;3.00;69.91
72855;BME280;60991;51.278;22.550;2023-12-28T04:39:17;99331.13;;;2.98;69.73
72855;BME280;60991;51.278;22.550;2023-12-28T04:40:48;99326.66;;;2.92;69.96
72855;BME280;60991;51.278;22.550;2023-12-28T04:42:18;99332.16;;;2.97;70.64
72855;BME280;60991;51.278;22.550;2023-12-28T04:43:48;99321.25;;;3.00;69.81
72855;BME280;60991;51.278;22.550;2023-12-28T04:45:19;99324.69;;;3.00;70.72
72855;BME280;60991;51.278;22.550;2023-12-28T04:46:49;99310.94;;;2.98;70.64
72855;BME280;60991;51.278;22.550;2023-12-28T04:48:19;99310.75;;;3.00;70.30
72855;BME280;60991;51.278;22.550;2023-12-28T04:49:49;99314.16;;;2.94;70.78
72855;BME280;60991;51.278;22.550;2023-12-28T04:51:19;99314.72;;;2.89;70.69
72855;BME280;60991;51.278;22.550;2023-12-28T04:52:50;99312.22;;;2.81;71.58
72855;BME280;60991;51.278;22.550;2023-12-28T04:54:20;99311.56;;;2.72;71.80
72855;BME280;60991;51.278;22.550;2023-12-28T04:55:50;99314.22;;;2.79;71.54
72855;BME280;60991;51.278;22.550;2023-12-28T04:57:20;99303.00;;;2.85;71.41
72855;BME280;60991;51.278;22.550;2023-12-28T04:58:50;99308.56;;;2.75;71.41
72855;BME280;60991;51.278;22.550;2023-12-28T05:00:20;99299.34;;;2.58;72.32
72855;BME280;60991;51.278;22.550;2023-12-28T05:01:51;99299.84;;;2.47;72.49
72855;BME280;60991;51.278;22.550;2023-12-28T05:03:21;99302.53;;;2.54;72.83
72855;BME280;60991;51.278;22.550;2023-12-28T05:04:51;99298.22;;;2.46;72.80
72855;BME280;60991;51.278;22.550;2023-12-28T05:06:21;99293.41;;;2.50;73.30
72855;BME280;60991;51.278;22.550;2023-12-28T05:07:52;99293.84;;;2.53;72.83
72855;BME280;60991;51.278;22.550;2023-12-28T05:09:22;99288.19;;;2.50;73.07
72855;BME280;60991;51.278;22.550;2023-12-28T05:10:53;99284.81;;;2.56;73.15
72855;BME280;60991;51.278;22.550;2023-12-28T05:12:23;99289.63;;;2.52;72.65
72855;BME280;60991;51.278;22.550;2023-12-28T05:13:53;99288.00;;;2.51;73.54
72855;BME280;60991;51.278;22.550;2023-12-28T05:15:23;99290.88;;;2.56;72.80
72855;BME280;60991;51.278;22.550;2023-12-28T05:16:54;99288.88;;;2.58;72.84
72855;BME280;60991;51.278;22.550;2023-12-28T05:18:24;99288.53;;;2.68;72.94
72855;BME280;60991;51.278;22.550;2023-12-28T05:19:54;99286.59;;;2.76;72.86
72855;BME280;60991;51.278;22.550;2023-12-28T05:21:24;99276.97;;;2.84;72.42
72855;BME280;60991;51.278;22.550;2023-12-28T05:22:54;99290.22;;;2.75;72.38
72855;BME280;60991;51.278;22.550;2023-12-28T05:24:24;99286.78;;;2.75;72.83
72855;BME280;60991;51.278;22.550;2023-12-28T05:25:55;99278.50;;;2.71;72.82
72855;BME280;60991;51.278;22.550;2023-12-28T05:27:25;99277.06;;;2.69;72.63
72855;BME280;60991;51.278;22.550;2023-12-28T05:28:55;99278.78;;;2.62;72.71
72855;BME280;60991;51.278;22.550;2023-12-28T05:30:25;99267.38;;;2.69;73.31
72855;BME280;60991;51.278;22.550;2023-12-28T05:31:55;99259.09;;;2.66;73.50
72855;BME280;60991;51.278;22.550;2023-12-28T05:33:26;99264.50;;;2.64;73.06
72855;BME280;60991;51.278;22.550;2023-12-28T05:34:56;99243.97;;;2.68;73.49
72855;BME280;60991;51.278;22.550;2023-12-28T05:36:26;99243.38;;;2.66;73.36
72855;BME280;60991;51.278;22.550;2023-12-28T05:37:56;99240.31;;;2.62;73.49
72855;BME280;60991;51.278;22.550;2023-12-28T05:39:26;99238.13;;;2.66;73.04
72855;BME280;60991;51.278;22.550;2023-12-28T05:40:57;99245.78;;;2.67;73.76
72855;BME280;60991;51.278;22.550;2023-12-28T05:42:27;99239.28;;;2.57;73.85
72855;BME280;60991;51.278;22.550;2023-12-28T05:43:57;99233.69;;;2.66;74.01
72855;BME280;60991;51.278;22.550;2023-12-28T05:45:27;99232.84;;;2.59;74.44
72855;BME280;60991;51.278;22.550;2023-12-28T05:46:57;99234.50;;;2.67;74.38
72855;BME280;60991;51.278;22.550;2023-12-28T05:48:28;99240.75;;;2.66;74.01
72855;BME280;60991;51.278;22.550;2023-12-28T05:49:58;99235.03;;;2.84;73.13
72855;BME280;60991;51.278;22.550;2023-12-28T05:51:28;99231.88;;;2.67;73.99
72855;BME280;60991;51.278;22.550;2023-12-28T05:52:58;99226.81;;;2.65;73.90
72855;BME280;60991;51.278;22.550;2023-12-28T05:54:28;99223.66;;;2.70;73.85
72855;BME280;60991;51.278;22.550;2023-12-28T05:56:00;99217.94;;;2.60;74.67
72855;BME280;60991;51.278;22.550;2023-12-28T05:57:30;99220.50;;;2.53;74.90
72855;BME280;60991;51.278;22.550;2023-12-28T05:59:01;99228.00;;;2.63;74.65
72855;BME280;60991;51.278;22.550;2023-12-28T06:00:31;99219.69;;;2.81;73.95
72855;BME280;60991;51.278;22.550;2023-12-28T06:02:01;99228.13;;;2.76;74.49
72855;BME280;60991;51.278;22.550;2023-12-28T06:03:31;99220.47;;;2.74;74.09
72855;BME280;60991;51.278;22.550;2023-12-28T06:05:02;99229.34;;;2.80;74.68
72855;BME280;60991;51.278;22.550;2023-12-28T06:06:32;99227.44;;;2.67;75.01
72855;BME280;60991;51.278;22.550;2023-12-28T06:08:02;99215.72;;;2.63;75.34
72855;BME280;60991;51.278;22.550;2023-12-28T06:09:32;99221.22;;;2.68;74.69
72855;BME280;60991;51.278;22.550;2023-12-28T06:11:03;99219.88;;;2.79;75.08
72855;BME280;60991;51.278;22.550;2023-12-28T06:12:33;99212.00;;;2.79;74.52
72855;BME280;60991;51.278;22.550;2023-12-28T06:14:03;99212.06;;;2.86;74.43
72855;BME280;60991;51.278;22.550;2023-12-28T06:15:33;99215.25;;;2.81;74.84
72855;BME280;60991;51.278;22.550;2023-12-28T06:17:03;99206.53;;;2.74;75.21
72855;BME280;60991;51.278;22.550;2023-12-28T06:18:34;99208.38;;;2.80;74.85
72855;BME280;60991;51.278;22.550;2023-12-28T06:20:04;99196.59;;;2.97;74.04
72855;BME280;60991;51.278;22.550;2023-12-28T06:21:35;99200.03;;;2.98;74.70
72855;BME280;60991;51.278;22.550;2023-12-28T06:23:06;99205.25;;;2.91;74.06
72855;BME280;60991;51.278;22.550;2023-12-28T06:24:40;99204.63;;;2.89;74.65
72855;BME280;60991;51.278;22.550;2023-12-28T06:26:10;99195.19;;;2.95;74.74
72855;BME280;60991;51.278;22.550;2023-12-28T06:27:40;99191.16;;;2.99;74.22
72855;BME280;60991;51.278;22.550;2023-12-28T06:29:10;99185.47;;;2.89;74.97
72855;BME280;60991;51.278;22.550;2023-12-28T06:30:40;99192.38;;;2.96;74.37
72855;BME280;60991;51.278;22.550;2023-12-28T06:32:11;99196.41;;;2.99;74.83
72855;BME280;60991;51.278;22.550;2023-12-28T06:33:41;99197.88;;;3.08;74.16
72855;BME280;60991;51.278;22.550;2023-12-28T06:35:11;99190.34;;;2.98;74.88
72855;BME280;60991;51.278;22.550;2023-12-28T06:36:41;99190.34;;;2.98;74.34
72855;BME280;60991;51.278;22.550;2023-12-28T06:38:12;99187.78;;;3.05;74.29
72855;BME280;60991;51.278;22.550;2023-12-28T06:39:42;99189.84;;;3.16;74.37
72855;BME280;60991;51.278;22.550;2023-12-28T06:41:12;99194.50;;;3.14;74.36
72855;BME280;60991;51.278;22.550;2023-12-28T06:42:43;99187.38;;;3.08;74.27
72855;BME280;60991;51.278;22.550;2023-12-28T06:44:13;99186.56;;;3.07;74.20
72855;BME280;60991;51.278;22.550;2023-12-28T06:45:43;99186.56;;;3.07;74.81
72855;BME280;60991;51.278;22.550;2023-12-28T06:47:13;99184.38;;;3.11;74.41
72855;BME280;60991;51.278;22.550;2023-12-28T06:48:44;99181.75;;;3.11;73.88
72855;BME280;60991;51.278;22.550;2023-12-28T06:50:14;99188.25;;;3.15;73.73
72855;BME280;60991;51.278;22.550;2023-12-28T06:51:44;99185.81;;;3.13;74.51
72855;BME280;60991;51.278;22.550;2023-12-28T06:53:14;99179.97;;;3.18;74.05
72855;BME280;60991;51.278;22.550;2023-12-28T06:54:45;99186.22;;;3.17;74.34
72855;BME280;60991;51.278;22.550;2023-12-28T06:56:15;99182.94;;;3.08;74.66
72855;BME280;60991;51.278;22.550;2023-12-28T06:57:45;99179.03;;;2.98;74.97
72855;BME280;60991;51.278;22.550;2023-12-28T06:59:15;99177.22;;;2.98;75.03
72855;BME280;60991;51.278;22.550;2023-12-28T07:00:45;99176.91;;;3.08;74.33
72855;BME280;60991;51.278;22.550;2023-12-28T07:02:16;99181.31;;;3.07;74.79
72855;BME280;60991;51.278;22.550;2023-12-28T07:03:46;99182.47;;;2.98;75.17
72855;BME280;60991;51.278;22.550;2023-12-28T07:05:16;99182.28;;;3.00;75.60
72855;BME280;60991;51.278;22.550;2023-12-28T07:06:46;99172.00;;;2.98;74.98
72855;BME280;60991;51.278;22.550;2023-12-28T07:08:16;99171.00;;;2.99;75.40
72855;BME280;60991;51.278;22.550;2023-12-28T07:09:47;99174.66;;;3.05;74.94
72855;BME280;60991;51.278;22.550;2023-12-28T07:11:17;99170.25;;;3.12;74.75
72855;BME280;60991;51.278;22.550;2023-12-28T07:12:47;99164.75;;;3.00;75.04
72855;BME280;60991;51.278;22.550;2023-12-28T07:14:17;99160.59;;;3.12;75.25
72855;BME280;60991;51.278;22.550;2023-12-28T07:15:47;99154.53;;;3.19;74.84
72855;BME280;60991;51.278;22.550;2023-12-28T07:17:18;99161.78;;;3.10;75.10
72855;BME280;60991;51.278;22.550;2023-12-28T07:18:48;99154.94;;;3.16;75.04
72855;BME280;60991;51.278;22.550;2023-12-28T07:20:18;99150.28;;;3.11;75.46
72855;BME280;60991;51.278;22.550;2023-12-28T07:21:48;99158.34;;;3.16;75.23
72855;BME280;60991;51.278;22.550;2023-12-28T07:23:19;99153.34;;;3.15;75.36
72855;BME280;60991;51.278;22.550;2023-12-28T07:24:49;99154.56;;;3.25;74.85
72855;BME280;60991;51.278;22.550;2023-12-28T07:26:19;99152.91;;;3.18;75.52
72855;BME280;60991;51.278;22.550;2023-12-28T07:27:49;99159.81;;;3.25;75.41
72855;BME280;60991;51.278;22.550;2023-12-28T07:29:19;99150.75;;;3.34;74.87
72855;BME280;60991;51.278;22.550;2023-12-28T07:30:50;99145.94;;;3.31;74.70
72855;BME280;60991;51.278;22.550;2023-12-28T07:32:20;99160.06;;;3.30;74.81
72855;BME280;60991;51.278;22.550;2023-12-28T07:33:50;99161.63;;;3.25;75.49
72855;BME280;60991;51.278;22.550;2023-12-28T07:35:20;99158.78;;;3.20;75.18
72855;BME280;60991;51.278;22.550;2023-12-28T07:36:51;99162.22;;;3.20;75.49
72855;BME280;60991;51.278;22.550;2023-12-28T07:38:21;99156.97;;;3.20;75.53
72855;BME280;60991;51.278;22.550;2023-12-28T07:39:52;99159.78;;;3.19;75.53
72855;BME280;60991;51.278;22.550;2023-12-28T07:41:22;99154.16;;;3.22;75.52
72855;BME280;60991;51.278;22.550;2023-12-28T07:42:52;99158.63;;;3.28;75.49
72855;BME280;60991;51.278;22.550;2023-12-28T07:44:23;99152.75;;;3.26;75.89
72855;BME280;60991;51.278;22.550;2023-12-28T07:45:53;99145.31;;;3.29;75.69
72855;BME280;60991;51.278;22.550;2023-12-28T07:47:23;99155.22;;;3.34;76.06
72855;BME280;60991;51.278;22.550;2023-12-28T07:48:53;99138.06;;;3.38;75.73
72855;BME280;60991;51.278;22.550;2023-12-28T07:50:23;99146.97;;;3.43;75.50
72855;BME280;60991;51.278;22.550;2023-12-28T07:51:54;99141.75;;;3.50;75.16
72855;BME280;60991;51.278;22.550;2023-12-28T07:53:24;99129.25;;;3.52;74.91
72855;BME280;60991;51.278;22.550;2023-12-28T07:54:54;99136.50;;;3.50;75.18
72855;BME280;60991;51.278;22.550;2023-12-28T07:56:24;99143.78;;;3.48;74.86
72855;BME280;60991;51.278;22.550;2023-12-28T07:57:55;99146.00;;;3.51;74.85
72855;BME280;60991;51.278;22.550;2023-12-28T07:59:25;99139.13;;;3.50;75.38
72855;BME280;60991;51.278;22.550;2023-12-28T08:00:55;99129.44;;;3.51;75.35
72855;BME280;60991;51.278;22.550;2023-12-28T08:02:25;99138.53;;;3.55;75.21